sensor_id;sensor_type;location;lat;lon;timestamp;P1;durP1;ratioP1;P2;durP2;ratioP2
12848;SDS011;6493;50.928;7.172;2023-02-11T00:00:12;4.43;;;2.80;;
12848;SDS011;6493;50.928;7.172;2023-02-11T00:05:16;2.93;;;2.50;;
12848;SDS011;6493;50.928;7.172;2023-02-11T00:10:20;3.43;;;2.57;;
12848;SDS011;6493;50.928;7.172;2023-02-11T00:15:25;3.13;;;2.50;;
12848;SDS011;6493;50.928;7.172;2023-02-11T00:20:29;3.00;;;2.27;;
12848;SDS011;6493;50.928;7.172;2023-02-11T00:25:32;2.87;;;2.27;;
12848;SDS011;6493;50.928;7.172;2023-02-11T00:30:39;2.83;;;2.33;;
12848;SDS011;6493;50.928;7.172;2023-02-11T00:35:43;3.67;;;2.63;;
12848;SDS011;6493;50.928;7.172;2023-02-11T00:40:46;3.60;;;2.60;;
12848;SDS011;6493;50.928;7.172;2023-02-11T00:45:51;3.97;;;3.27;;
12848;SDS011;6493;50.928;7.172;2023-02-11T00:50:55;4.23;;;2.60;;
12848;SDS011;6493;50.928;7.172;2023-02-11T00:55:59;3.20;;;2.30;;
12848;SDS011;6493;50.928;7.172;2023-02-11T01:01:04;4.30;;;3.00;;
12848;SDS011;6493;50.928;7.172;2023-02-11T01:06:08;3.57;;;2.67;;
12848;SDS011;6493;50.928;7.172;2023-02-11T01:11:13;2.83;;;2.17;;
12848;SDS011;6493;50.928;7.172;2023-02-11T01:16:20;4.17;;;2.57;;
12848;SDS011;6493;50.928;7.172;2023-02-11T01:21:27;3.67;;;2.40;;
12848;SDS011;6493;50.928;7.172;2023-02-11T01:26:30;3.50;;;2.63;;
12848;SDS011;6493;50.928;7.172;2023-02-11T01:31:35;3.33;;;2.03;;
12848;SDS011;6493;50.928;7.172;2023-02-11T01:36:39;3.47;;;2.70;;
12848;SDS011;6493;50.928;7.172;2023-02-11T01:41:42;3.17;;;2.57;;
12848;SDS011;6493;50.928;7.172;2023-02-11T01:46:47;3.60;;;2.60;;
12848;SDS011;6493;50.928;7.172;2023-02-11T01:51:54;2.40;;;2.17;;
12848;SDS011;6493;50.928;7.172;2023-02-11T01:57:00;3.30;;;2.37;;
12848;SDS011;6493;50.928;7.172;2023-02-11T02:02:29;3.70;;;2.43;;
12848;SDS011;6493;50.928;7.172;2023-02-11T02:07:38;3.27;;;2.60;;
12848;SDS011;6493;50.928;7.172;2023-02-11T02:12:47;3.93;;;2.83;;
12848;SDS011;6493;50.928;7.172;2023-02-11T02:17:56;4.03;;;3.03;;
12848;SDS011;6493;50.928;7.172;2023-02-11T02:28:44;4.00;;;3.13;;
12848;SDS011;6493;50.928;7.172;2023-02-11T02:34:05;3.77;;;3.30;;
12848;SDS011;6493;50.928;7.172;2023-02-11T02:39:17;4.67;;;3.30;;
12848;SDS011;6493;50.928;7.172;2023-02-11T02:44:24;4.33;;;3.53;;
12848;SDS011;6493;50.928;7.172;2023-02-11T02:49:29;3.50;;;2.70;;
12848;SDS011;6493;50.928;7.172;2023-02-11T02:54:42;4.03;;;3.23;;
12848;SDS011;6493;50.928;7.172;2023-02-11T03:00:08;3.67;;;3.20;;
12848;SDS011;6493;50.928;7.172;2023-02-11T03:05:22;3.73;;;2.80;;
12848;SDS011;6493;50.928;7.172;2023-02-11T03:10:33;4.37;;;3.50;;
12848;SDS011;6493;50.928;7.172;2023-02-11T03:15:43;4.10;;;2.53;;
12848;SDS011;6493;50.928;7.172;2023-02-11T03:20:53;3.77;;;2.67;;
12848;SDS011;6493;50.928;7.172;2023-02-11T03:26:04;3.60;;;2.83;;
12848;SDS011;6493;50.928;7.172;2023-02-11T03:31:21;4.13;;;2.57;;
12848;SDS011;6493;50.928;7.172;2023-02-11T03:36:34;4.73;;;3.53;;
12848;SDS011;6493;50.928;7.172;2023-02-11T03:41:47;3.97;;;3.27;;
12848;SDS011;6493;50.928;7.172;2023-02-11T03:46:51;3.67;;;3.13;;
12848;SDS011;6493;50.928;7.172;2023-02-11T03:51:58;3.80;;;3.00;;
12848;SDS011;6493;50.928;7.172;2023-02-11T03:57:04;4.10;;;2.97;;
12848;SDS011;6493;50.928;7.172;2023-02-11T04:02:08;3.67;;;3.03;;
12848;SDS011;6493;50.928;7.172;2023-02-11T04:07:13;4.50;;;3.80;;
12848;SDS011;6493;50.928;7.172;2023-02-11T04:12:16;3.00;;;2.53;;
12848;SDS011;6493;50.928;7.172;2023-02-11T04:17:20;4.60;;;3.17;;
12848;SDS011;6493;50.928;7.172;2023-02-11T04:22:25;3.07;;;2.63;;
12848;SDS011;6493;50.928;7.172;2023-02-11T04:27:29;4.10;;;2.57;;
12848;SDS011;6493;50.928;7.172;2023-02-11T04:32:33;3.17;;;2.57;;
12848;SDS011;6493;50.928;7.172;2023-02-11T04:37:38;3.93;;;3.03;;
12848;SDS011;6493;50.928;7.172;2023-02-11T04:42:42;4.30;;;3.40;;
12848;SDS011;6493;50.928;7.172;2023-02-11T04:47:45;4.00;;;3.30;;
12848;SDS011;6493;50.928;7.172;2023-02-11T04:52:50;3.53;;;2.70;;
12848;SDS011;6493;50.928;7.172;2023-02-11T04:57:54;3.90;;;3.17;;
12848;SDS011;6493;50.928;7.172;2023-02-11T05:02:57;4.23;;;2.97;;
12848;SDS011;6493;50.928;7.172;2023-02-11T05:08:02;4.90;;;3.60;;
12848;SDS011;6493;50.928;7.172;2023-02-11T05:13:06;4.37;;;3.90;;
12848;SDS011;6493;50.928;7.172;2023-02-11T05:18:11;3.43;;;3.10;;
12848;SDS011;6493;50.928;7.172;2023-02-11T05:23:16;3.70;;;3.30;;
12848;SDS011;6493;50.928;7.172;2023-02-11T05:28:20;3.93;;;3.20;;
12848;SDS011;6493;50.928;7.172;2023-02-11T05:33:24;5.50;;;3.70;;
12848;SDS011;6493;50.928;7.172;2023-02-11T05:38:29;4.73;;;2.60;;
12848;SDS011;6493;50.928;7.172;2023-02-11T05:43:32;4.07;;;3.37;;
12848;SDS011;6493;50.928;7.172;2023-02-11T05:48:37;6.47;;;4.17;;
12848;SDS011;6493;50.928;7.172;2023-02-11T05:53:42;4.63;;;3.07;;
12848;SDS011;6493;50.928;7.172;2023-02-11T05:58:46;4.53;;;2.97;;
12848;SDS011;6493;50.928;7.172;2023-02-11T06:03:49;4.60;;;3.30;;
12848;SDS011;6493;50.928;7.172;2023-02-11T06:08:55;4.33;;;3.13;;
12848;SDS011;6493;50.928;7.172;2023-02-11T06:13:58;4.73;;;3.10;;
12848;SDS011;6493;50.928;7.172;2023-02-11T06:19:02;5.03;;;3.20;;
12848;SDS011;6493;50.928;7.172;2023-02-11T06:24:07;4.20;;;2.90;;
12848;SDS011;6493;50.928;7.172;2023-02-11T06:29:11;5.90;;;3.33;;
12848;SDS011;6493;50.928;7.172;2023-02-11T06:34:15;3.90;;;3.23;;
12848;SDS011;6493;50.928;7.172;2023-02-11T06:39:20;3.80;;;2.93;;
12848;SDS011;6493;50.928;7.172;2023-02-11T06:44:23;3.63;;;2.70;;
12848;SDS011;6493;50.928;7.172;2023-02-11T06:49:27;3.67;;;2.83;;
12848;SDS011;6493;50.928;7.172;2023-02-11T06:54:32;3.10;;;2.40;;
12848;SDS011;6493;50.928;7.172;2023-02-11T06:59:35;5.03;;;2.33;;
12848;SDS011;6493;50.928;7.172;2023-02-11T07:04:39;3.50;;;2.53;;
12848;SDS011;6493;50.928;7.172;2023-02-11T07:09:44;3.33;;;2.67;;
12848;SDS011;6493;50.928;7.172;2023-02-11T07:14:47;4.03;;;2.80;;
12848;SDS011;6493;50.928;7.172;2023-02-11T07:19:51;4.57;;;2.87;;
12848;SDS011;6493;50.928;7.172;2023-02-11T07:24:56;2.93;;;2.43;;
12848;SDS011;6493;50.928;7.172;2023-02-11T07:29:59;3.90;;;2.80;;
12848;SDS011;6493;50.928;7.172;2023-02-11T07:35:05;2.80;;;2.50;;
12848;SDS011;6493;50.928;7.172;2023-02-11T07:40:11;2.77;;;2.37;;
12848;SDS011;6493;50.928;7.172;2023-02-11T07:45:14;3.80;;;2.53;;
12848;SDS011;6493;50.928;7.172;2023-02-11T07:50:18;3.23;;;2.63;;
12848;SDS011;6493;50.928;7.172;2023-02-11T07:55:23;6.27;;;3.83;;
12848;SDS011;6493;50.928;7.172;2023-02-11T08:00:27;3.90;;;3.47;;
12848;SDS011;6493;50.928;7.172;2023-02-11T08:05:30;4.40;;;3.00;;
12848;SDS011;6493;50.928;7.172;2023-02-11T08:10:35;3.73;;;2.87;;
12848;SDS011;6493;50.928;7.172;2023-02-11T08:15:39;4.53;;;2.80;;
12848;SDS011;6493;50.928;7.172;2023-02-11T08:20:42;5.30;;;3.27;;
12848;SDS011;6493;50.928;7.172;2023-02-11T08:25:48;5.17;;;4.50;;
12848;SDS011;6493;50.928;7.172;2023-02-11T08:30:51;5.00;;;4.27;;
12848;SDS011;6493;50.928;7.172;2023-02-11T08:35:55;4.77;;;3.90;;
12848;SDS011;6493;50.928;7.172;2023-02-11T08:41:00;5.17;;;4.63;;
12848;SDS011;6493;50.928;7.172;2023-02-11T08:46:04;6.20;;;5.10;;
12848;SDS011;6493;50.928;7.172;2023-02-11T08:51:09;5.43;;;4.37;;
12848;SDS011;6493;50.928;7.172;2023-02-11T08:56:17;4.93;;;3.80;;
12848;SDS011;6493;50.928;7.172;2023-02-11T09:01:23;4.67;;;3.73;;
12848;SDS011;6493;50.928;7.172;2023-02-11T09:06:29;5.10;;;4.27;;
12848;SDS011;6493;50.928;7.172;2023-02-11T09:11:34;4.20;;;2.83;;
12848;SDS011;6493;50.928;7.172;2023-02-11T09:16:37;3.83;;;2.83;;
12848;SDS011;6493;50.928;7.172;2023-02-11T09:21:41;4.83;;;3.60;;
12848;SDS011;6493;50.928;7.172;2023-02-11T09:26:46;5.83;;;3.63;;
12848;SDS011;6493;50.928;7.172;2023-02-11T09:31:50;4.57;;;3.43;;
12848;SDS011;6493;50.928;7.172;2023-02-11T09:36:54;4.40;;;3.43;;
12848;SDS011;6493;50.928;7.172;2023-02-11T09:47:44;4.87;;;3.90;;
12848;SDS011;6493;50.928;7.172;2023-02-11T09:52:51;4.07;;;3.67;;
12848;SDS011;6493;50.928;7.172;2023-02-11T09:58:01;4.80;;;3.60;;
12848;SDS011;6493;50.928;7.172;2023-02-11T10:03:22;6.17;;;3.43;;
12848;SDS011;6493;50.928;7.172;2023-02-11T10:08:40;3.20;;;2.83;;
12848;SDS011;6493;50.928;7.172;2023-02-11T10:13:54;4.20;;;3.47;;
12848;SDS011;6493;50.928;7.172;2023-02-11T10:19:08;4.00;;;2.97;;
12848;SDS011;6493;50.928;7.172;2023-02-11T10:24:22;2.47;;;2.10;;
12848;SDS011;6493;50.928;7.172;2023-02-11T10:29:32;3.13;;;2.70;;
12848;SDS011;6493;50.928;7.172;2023-02-11T10:34:40;3.80;;;3.00;;
12848;SDS011;6493;50.928;7.172;2023-02-11T10:39:44;4.87;;;3.70;;
12848;SDS011;6493;50.928;7.172;2023-02-11T10:44:56;3.43;;;2.87;;
12848;SDS011;6493;50.928;7.172;2023-02-11T10:50:03;4.37;;;3.10;;
12848;SDS011;6493;50.928;7.172;2023-02-11T10:55:24;4.97;;;3.37;;
12848;SDS011;6493;50.928;7.172;2023-02-11T11:00:33;5.30;;;3.73;;
12848;SDS011;6493;50.928;7.172;2023-02-11T11:05:45;4.57;;;3.10;;
12848;SDS011;6493;50.928;7.172;2023-02-11T11:11:00;3.97;;;3.33;;
12848;SDS011;6493;50.928;7.172;2023-02-11T11:16:22;4.27;;;2.77;;
12848;SDS011;6493;50.928;7.172;2023-02-11T11:21:27;4.23;;;3.13;;
12848;SDS011;6493;50.928;7.172;2023-02-11T11:26:40;3.57;;;2.67;;
12848;SDS011;6493;50.928;7.172;2023-02-11T11:31:48;3.57;;;2.60;;
12848;SDS011;6493;50.928;7.172;2023-02-11T11:36:54;4.10;;;3.20;;
12848;SDS011;6493;50.928;7.172;2023-02-11T11:41:59;3.03;;;2.63;;
12848;SDS011;6493;50.928;7.172;2023-02-11T11:47:17;3.70;;;3.10;;
12848;SDS011;6493;50.928;7.172;2023-02-11T11:52:31;4.97;;;3.63;;
12848;SDS011;6493;50.928;7.172;2023-02-11T11:57:39;4.90;;;3.93;;
12848;SDS011;6493;50.928;7.172;2023-02-11T12:02:52;4.00;;;2.80;;
12848;SDS011;6493;50.928;7.172;2023-02-11T12:08:28;4.00;;;2.83;;
12848;SDS011;6493;50.928;7.172;2023-02-11T12:13:47;4.70;;;3.07;;
12848;SDS011;6493;50.928;7.172;2023-02-11T12:19:17;3.60;;;2.83;;
12848;SDS011;6493;50.928;7.172;2023-02-11T12:24:43;4.43;;;3.13;;
12848;SDS011;6493;50.928;7.172;2023-02-11T12:29:59;3.73;;;2.17;;
12848;SDS011;6493;50.928;7.172;2023-02-11T12:35:18;4.23;;;3.37;;
12848;SDS011;6493;50.928;7.172;2023-02-11T12:40:31;4.43;;;3.90;;
12848;SDS011;6493;50.928;7.172;2023-02-11T12:45:48;4.60;;;3.40;;
12848;SDS011;6493;50.928;7.172;2023-02-11T12:51:06;3.73;;;3.13;;
12848;SDS011;6493;50.928;7.172;2023-02-11T12:56:17;4.27;;;3.13;;
12848;SDS011;6493;50.928;7.172;2023-02-11T13:01:25;4.70;;;3.40;;
12848;SDS011;6493;50.928;7.172;2023-02-11T13:06:34;3.83;;;3.23;;
12848;SDS011;6493;50.928;7.172;2023-02-11T13:11:43;4.20;;;3.40;;
12848;SDS011;6493;50.928;7.172;2023-02-11T13:16:52;4.63;;;4.00;;
12848;SDS011;6493;50.928;7.172;2023-02-11T13:22:01;5.60;;;4.07;;
12848;SDS011;6493;50.928;7.172;2023-02-11T13:27:16;4.33;;;3.37;;
12848;SDS011;6493;50.928;7.172;2023-02-11T13:32:28;3.93;;;3.10;;
12848;SDS011;6493;50.928;7.172;2023-02-11T13:38:15;5.07;;;3.70;;
12848;SDS011;6493;50.928;7.172;2023-02-11T13:43:24;3.70;;;3.03;;
12848;SDS011;6493;50.928;7.172;2023-02-11T13:48:30;4.07;;;3.07;;
12848;SDS011;6493;50.928;7.172;2023-02-11T13:53:44;4.93;;;3.63;;
12848;SDS011;6493;50.928;7.172;2023-02-11T13:58:50;3.53;;;2.97;;
12848;SDS011;6493;50.928;7.172;2023-02-11T14:04:04;4.13;;;3.37;;
12848;SDS011;6493;50.928;7.172;2023-02-11T14:09:40;4.73;;;3.70;;
12848;SDS011;6493;50.928;7.172;2023-02-11T14:14:57;4.13;;;3.33;;
12848;SDS011;6493;50.928;7.172;2023-02-11T14:25:59;4.43;;;3.50;;
12848;SDS011;6493;50.928;7.172;2023-02-11T14:31:13;4.93;;;3.50;;
12848;SDS011;6493;50.928;7.172;2023-02-11T14:36:28;5.97;;;4.30;;
12848;SDS011;6493;50.928;7.172;2023-02-11T14:41:54;4.50;;;3.20;;
12848;SDS011;6493;50.928;7.172;2023-02-11T14:46:58;5.07;;;3.50;;
12848;SDS011;6493;50.928;7.172;2023-02-11T14:52:05;5.40;;;3.90;;
12848;SDS011;6493;50.928;7.172;2023-02-11T14:57:19;5.00;;;4.00;;
12848;SDS011;6493;50.928;7.172;2023-02-11T15:02:24;4.97;;;3.87;;
12848;SDS011;6493;50.928;7.172;2023-02-11T15:07:30;6.40;;;4.30;;
12848;SDS011;6493;50.928;7.172;2023-02-11T15:12:35;6.63;;;3.97;;
12848;SDS011;6493;50.928;7.172;2023-02-11T15:17:40;4.50;;;3.43;;
12848;SDS011;6493;50.928;7.172;2023-02-11T15:22:46;4.47;;;3.43;;
12848;SDS011;6493;50.928;7.172;2023-02-11T15:27:55;5.13;;;3.77;;
12848;SDS011;6493;50.928;7.172;2023-02-11T15:33:00;5.80;;;4.40;;
12848;SDS011;6493;50.928;7.172;2023-02-11T15:38:08;4.60;;;3.63;;
12848;SDS011;6493;50.928;7.172;2023-02-11T15:43:15;5.13;;;3.70;;
12848;SDS011;6493;50.928;7.172;2023-02-11T15:48:20;4.57;;;3.87;;
12848;SDS011;6493;50.928;7.172;2023-02-11T15:53:28;4.60;;;3.40;;
12848;SDS011;6493;50.928;7.172;2023-02-11T15:58:36;3.67;;;3.20;;
12848;SDS011;6493;50.928;7.172;2023-02-11T16:03:41;4.13;;;3.60;;
12848;SDS011;6493;50.928;7.172;2023-02-11T16:08:55;4.27;;;3.40;;
12848;SDS011;6493;50.928;7.172;2023-02-11T16:14:01;4.10;;;3.37;;
12848;SDS011;6493;50.928;7.172;2023-02-11T16:19:23;4.53;;;3.60;;
12848;SDS011;6493;50.928;7.172;2023-02-11T16:24:28;4.40;;;3.50;;
12848;SDS011;6493;50.928;7.172;2023-02-11T16:29:36;5.13;;;3.53;;
12848;SDS011;6493;50.928;7.172;2023-02-11T16:34:40;4.47;;;3.80;;
12848;SDS011;6493;50.928;7.172;2023-02-11T16:39:44;4.33;;;3.47;;
12848;SDS011;6493;50.928;7.172;2023-02-11T16:44:49;4.53;;;3.53;;
12848;SDS011;6493;50.928;7.172;2023-02-11T16:49:53;3.83;;;3.27;;
12848;SDS011;6493;50.928;7.172;2023-02-11T16:54:58;4.43;;;3.50;;
12848;SDS011;6493;50.928;7.172;2023-02-11T17:00:04;3.90;;;3.30;;
12848;SDS011;6493;50.928;7.172;2023-02-11T17:05:15;5.07;;;3.73;;
12848;SDS011;6493;50.928;7.172;2023-02-11T17:10:21;4.77;;;3.47;;
12848;SDS011;6493;50.928;7.172;2023-02-11T17:15:28;5.77;;;3.87;;
12848;SDS011;6493;50.928;7.172;2023-02-11T17:20:31;4.60;;;3.57;;
12848;SDS011;6493;50.928;7.172;2023-02-11T17:25:35;5.10;;;3.73;;
12848;SDS011;6493;50.928;7.172;2023-02-11T17:30:40;4.17;;;3.07;;
12848;SDS011;6493;50.928;7.172;2023-02-11T17:35:45;4.97;;;3.67;;
12848;SDS011;6493;50.928;7.172;2023-02-11T17:40:55;4.70;;;3.53;;
12848;SDS011;6493;50.928;7.172;2023-02-11T17:46:00;5.00;;;3.80;;
12848;SDS011;6493;50.928;7.172;2023-02-11T17:51:18;5.50;;;4.60;;
12848;SDS011;6493;50.928;7.172;2023-02-11T17:56:23;5.80;;;4.33;;
12848;SDS011;6493;50.928;7.172;2023-02-11T18:01:29;5.60;;;4.13;;
12848;SDS011;6493;50.928;7.172;2023-02-11T18:06:34;5.57;;;4.27;;
12848;SDS011;6493;50.928;7.172;2023-02-11T18:11:38;5.63;;;4.53;;
12848;SDS011;6493;50.928;7.172;2023-02-11T18:16:44;4.87;;;3.90;;
12848;SDS011;6493;50.928;7.172;2023-02-11T18:21:51;4.73;;;3.70;;
12848;SDS011;6493;50.928;7.172;2023-02-11T18:26:54;3.97;;;3.37;;
12848;SDS011;6493;50.928;7.172;2023-02-11T18:31:59;4.47;;;3.70;;
12848;SDS011;6493;50.928;7.172;2023-02-11T18:37:03;4.30;;;3.33;;
12848;SDS011;6493;50.928;7.172;2023-02-11T18:42:07;4.67;;;3.53;;
12848;SDS011;6493;50.928;7.172;2023-02-11T18:47:12;4.30;;;3.53;;
12848;SDS011;6493;50.928;7.172;2023-02-11T18:52:16;4.87;;;3.63;;
12848;SDS011;6493;50.928;7.172;2023-02-11T18:57:20;5.50;;;3.87;;
12848;SDS011;6493;50.928;7.172;2023-02-11T19:02:25;4.13;;;3.53;;
12848;SDS011;6493;50.928;7.172;2023-02-11T19:07:30;5.23;;;4.00;;
12848;SDS011;6493;50.928;7.172;2023-02-11T19:12:34;3.97;;;3.40;;
12848;SDS011;6493;50.928;7.172;2023-02-11T19:17:41;4.27;;;3.37;;
12848;SDS011;6493;50.928;7.172;2023-02-11T19:22:45;4.37;;;3.70;;
12848;SDS011;6493;50.928;7.172;2023-02-11T19:27:49;4.73;;;3.70;;
12848;SDS011;6493;50.928;7.172;2023-02-11T19:32:54;5.80;;;3.90;;
12848;SDS011;6493;50.928;7.172;2023-02-11T19:37:58;4.93;;;3.63;;
12848;SDS011;6493;50.928;7.172;2023-02-11T19:43:02;3.77;;;3.33;;
12848;SDS011;6493;50.928;7.172;2023-02-11T19:48:07;4.53;;;3.67;;
12848;SDS011;6493;50.928;7.172;2023-02-11T19:53:14;4.63;;;3.40;;
12848;SDS011;6493;50.928;7.172;2023-02-11T19:58:18;4.87;;;3.70;;
12848;SDS011;6493;50.928;7.172;2023-02-11T20:03:23;3.80;;;3.40;;
12848;SDS011;6493;50.928;7.172;2023-02-11T20:08:26;4.87;;;3.50;;
12848;SDS011;6493;50.928;7.172;2023-02-11T20:13:30;5.30;;;3.80;;
12848;SDS011;6493;50.928;7.172;2023-02-11T20:18:36;3.90;;;3.43;;
12848;SDS011;6493;50.928;7.172;2023-02-11T20:23:40;3.53;;;3.13;;
12848;SDS011;6493;50.928;7.172;2023-02-11T20:28:45;5.53;;;3.67;;
12848;SDS011;6493;50.928;7.172;2023-02-11T20:33:51;5.40;;;3.97;;
12848;SDS011;6493;50.928;7.172;2023-02-11T20:38:57;4.30;;;3.33;;
12848;SDS011;6493;50.928;7.172;2023-02-11T20:44:03;4.47;;;3.60;;
12848;SDS011;6493;50.928;7.172;2023-02-11T20:49:10;4.10;;;3.63;;
12848;SDS011;6493;50.928;7.172;2023-02-11T20:54:15;5.20;;;3.97;;
12848;SDS011;6493;50.928;7.172;2023-02-11T20:59:22;4.87;;;3.87;;
12848;SDS011;6493;50.928;7.172;2023-02-11T21:04:28;4.40;;;3.33;;
12848;SDS011;6493;50.928;7.172;2023-02-11T21:09:33;4.73;;;3.60;;
12848;SDS011;6493;50.928;7.172;2023-02-11T21:14:37;5.20;;;3.60;;
12848;SDS011;6493;50.928;7.172;2023-02-11T21:19:42;5.40;;;4.03;;
12848;SDS011;6493;50.928;7.172;2023-02-11T21:24:46;4.47;;;3.83;;
12848;SDS011;6493;50.928;7.172;2023-02-11T21:29:49;5.97;;;4.30;;
12848;SDS011;6493;50.928;7.172;2023-02-11T21:34:56;5.37;;;4.33;;
12848;SDS011;6493;50.928;7.172;2023-02-11T21:40:03;5.00;;;4.27;;
12848;SDS011;6493;50.928;7.172;2023-02-11T21:45:08;5.17;;;4.03;;
12848;SDS011;6493;50.928;7.172;2023-02-11T21:50:13;4.97;;;3.93;;
12848;SDS011;6493;50.928;7.172;2023-02-11T21:55:17;5.10;;;4.40;;
12848;SDS011;6493;50.928;7.172;2023-02-11T22:00:24;5.53;;;4.93;;
12848;SDS011;6493;50.928;7.172;2023-02-11T22:05:30;6.87;;;4.60;;
12848;SDS011;6493;50.928;7.172;2023-02-11T22:10:33;5.73;;;4.40;;
12848;SDS011;6493;50.928;7.172;2023-02-11T22:15:37;5.30;;;4.20;;
12848;SDS011;6493;50.928;7.172;2023-02-11T22:20:42;5.30;;;4.23;;
12848;SDS011;6493;50.928;7.172;2023-02-11T22:25:45;5.47;;;4.53;;
12848;SDS011;6493;50.928;7.172;2023-02-11T22:30:52;4.87;;;4.03;;
12848;SDS011;6493;50.928;7.172;2023-02-11T22:35:59;5.37;;;4.07;;
12848;SDS011;6493;50.928;7.172;2023-02-11T22:41:04;4.67;;;3.50;;
12848;SDS011;6493;50.928;7.172;2023-02-11T22:46:11;4.80;;;4.00;;
12848;SDS011;6493;50.928;7.172;2023-02-11T22:51:19;4.97;;;3.93;;
12848;SDS011;6493;50.928;7.172;2023-02-11T22:56:27;4.53;;;4.00;;
12848;SDS011;6493;50.928;7.172;2023-02-11T23:01:32;4.63;;;3.70;;
12848;SDS011;6493;50.928;7.172;2023-02-11T23:06:38;5.20;;;4.20;;
12848;SDS011;6493;50.928;7.172;2023-02-11T23:11:42;5.73;;;4.03;;
12848;SDS011;6493;50.928;7.172;2023-02-11T23:16:46;5.90;;;4.27;;
12848;SDS011;6493;50.928;7.172;2023-02-11T23:21:53;5.73;;;4.47;;
12848;SDS011;6493;50.928;7.172;2023-02-11T23:26:57;4.90;;;4.13;;
12848;SDS011;6493;50.928;7.172;2023-02-11T23:32:01;6.17;;;4.57;;
12848;SDS011;6493;50.928;7.172;2023-02-11T23:37:06;6.23;;;4.17;;
12848;SDS011;6493;50.928;7.172;2023-02-11T23:42:09;5.37;;;4.40;;
12848;SDS011;6493;50.928;7.172;2023-02-11T23:47:13;7.93;;;4.67;;
12848;SDS011;6493;50.928;7.172;2023-02-11T23:52:18;5.80;;;4.20;;
12848;SDS011;6493;50.928;7.172;2023-02-11T23:57:22;5.43;;;4.13;;
